createdAt,value
2019-01-19T00:00:49.170Z,83.98
2019-01-19T00:03:53.994Z,83.92
2019-01-19T00:06:34.458Z,83.83
2019-01-19T00:09:14.918Z,83.79
2019-01-19T00:11:55.309Z,83.86
2019-01-19T00:14:24.892Z,83.92
2019-01-19T00:17:05.021Z,84.00
2019-01-19T00:20:09.781Z,84.09
2019-01-19T00:22:41.252Z,84.08
2019-01-19T00:25:38.337Z,83.93
2019-01-19T00:28:18.352Z,83.98
2019-01-19T00:30:52.425Z,83.87
2019-01-19T00:33:50.633Z,83.87
2019-01-19T00:36:25.035Z,83.79
2019-01-19T00:39:08.405Z,83.86
2019-01-19T00:42:08.581Z,83.95
2019-01-19T00:44:45.827Z,83.97
2019-01-19T00:47:20.130Z,83.87
2019-01-19T00:49:51.716Z,83.94
2019-01-19T00:52:26.080Z,83.99
2019-01-19T00:55:18.905Z,84.07
2019-01-19T00:57:52.972Z,84.10
2019-01-19T01:00:33.335Z,84.08
2019-01-19T01:03:19.421Z,84.07
2019-01-19T01:05:56.850Z,84.06
2019-01-19T01:08:43.418Z,84.04
2019-01-19T01:11:17.867Z,83.95
2019-01-19T01:14:07.404Z,83.90
2019-01-19T01:16:52.141Z,83.92
2019-01-19T01:19:45.056Z,83.91
2019-01-19T01:22:29.386Z,83.97
2019-01-19T01:25:01.045Z,83.98
2019-01-19T01:27:38.422Z,83.96
2019-01-19T01:30:15.890Z,83.95
2019-01-19T01:32:53.415Z,83.95
2019-01-19T01:35:36.991Z,83.92
2019-01-19T01:38:23.849Z,83.94
2019-01-19T01:41:11.878Z,83.87
2019-01-19T01:43:43.371Z,83.80
2019-01-19T01:46:46.635Z,83.83
2019-01-19T01:49:30.408Z,83.88
2019-01-19T01:52:13.620Z,83.84
2019-01-19T01:54:54.114Z,83.85
2019-01-19T01:57:24.974Z,83.88
2019-01-19T01:59:59.008Z,83.84
2019-01-19T02:02:36.438Z,83.86
2019-01-19T02:05:27.835Z,83.92
2019-01-19T02:08:08.276Z,83.87
2019-01-19T02:10:56.487Z,83.83
2019-01-19T02:13:36.784Z,83.86
2019-01-19T02:16:23.461Z,83.77
2019-01-19T02:19:15.874Z,83.76
2019-01-19T02:21:49.945Z,83.68
2019-01-19T02:24:55.074Z,83.61
2019-01-19T02:27:32.423Z,83.62
2019-01-19T02:30:12.548Z,83.57
2019-01-19T02:32:50.012Z,83.68
2019-01-19T02:35:30.072Z,83.73
2019-01-19T02:38:04.323Z,83.80
2019-01-19T02:40:39.165Z,83.84
2019-01-19T02:43:10.678Z,83.84
2019-01-19T02:45:50.838Z,83.82
2019-01-19T02:48:22.338Z,83.84
2019-01-19T02:50:59.763Z,83.82
2019-01-19T02:53:31.326Z,83.84
2019-01-19T02:56:02.829Z,83.80
2019-01-19T02:58:34.329Z,83.78
2019-01-19T03:01:05.852Z,83.77
2019-01-19T03:03:43.019Z,83.68
2019-01-19T03:06:17.520Z,83.73
2019-01-19T03:08:49.010Z,83.69
2019-01-19T03:11:35.612Z,83.63
2019-01-19T03:14:15.932Z,83.70
2019-01-19T03:16:50.323Z,83.65
2019-01-19T03:19:36.937Z,83.65
2019-01-19T03:22:26.930Z,83.66
2019-01-19T03:25:18.105Z,83.57
2019-01-19T03:28:10.878Z,83.49
2019-01-19T03:31:01.857Z,83.41
2019-01-19T03:33:45.088Z,83.38
2019-01-19T03:36:25.692Z,83.39
2019-01-19T03:39:09.407Z,83.43
2019-01-19T03:41:44.774Z,83.47
2019-01-19T03:44:34.507Z,83.46
2019-01-19T03:47:14.809Z,83.52
2019-01-19T03:50:07.215Z,83.51
2019-01-19T03:52:38.726Z,83.50
2019-01-19T03:55:10.244Z,83.53
2019-01-19T03:57:59.956Z,83.66
2019-01-19T04:00:40.253Z,83.72
2019-01-19T04:03:23.795Z,83.71
2019-01-19T04:06:29.946Z,83.70
2019-01-19T04:09:21.193Z,83.76
2019-01-19T04:12:01.500Z,83.69
2019-01-19T04:14:54.212Z,83.65
2019-01-19T04:17:31.543Z,83.62
2019-01-19T04:20:19.838Z,83.61
2019-01-19T04:22:48.253Z,83.63
2019-01-19T04:25:19.716Z,83.56
2019-01-19T04:27:48.159Z,83.55
2019-01-19T04:30:16.689Z,83.57
2019-01-19T04:32:45.108Z,83.63
2019-01-19T04:35:13.608Z,83.65
2019-01-19T04:37:42.066Z,83.60
2019-01-19T04:40:12.517Z,83.57
2019-01-19T04:42:42.888Z,83.49
2019-01-19T04:45:11.750Z,83.49
2019-01-19T04:47:40.211Z,83.54
2019-01-19T04:50:10.683Z,83.58
2019-01-19T04:52:39.140Z,83.58
2019-01-19T04:55:08.101Z,83.55
2019-01-19T04:57:36.625Z,83.54
2019-01-19T05:00:08.105Z,83.53
2019-01-19T05:02:36.823Z,83.56
2019-01-19T05:05:06.279Z,83.45
2019-01-19T05:07:34.956Z,83.45
2019-01-19T05:10:05.117Z,83.38
2019-01-19T05:12:33.563Z,83.46
2019-01-19T05:15:02.044Z,83.48
2019-01-19T05:17:30.500Z,83.44
2019-01-19T05:19:58.920Z,83.30
2019-01-19T05:22:27.391Z,83.18
2019-01-19T05:24:57.374Z,83.18
2019-01-19T05:27:25.829Z,83.17
2019-01-19T05:29:54.285Z,83.20
2019-01-19T05:32:22.939Z,83.19
2019-01-19T05:34:51.762Z,83.07
2019-01-19T05:37:20.177Z,83.12
2019-01-19T05:39:48.628Z,83.20
2019-01-19T05:42:17.068Z,83.22
2019-01-19T05:44:45.511Z,83.25
2019-01-19T05:47:13.931Z,83.24
2019-01-19T05:49:42.367Z,83.11
2019-01-19T05:52:10.862Z,83.12
2019-01-19T05:54:39.297Z,83.10
2019-01-19T05:57:07.720Z,82.99
2019-01-19T05:59:36.291Z,82.92
2019-01-19T06:02:04.949Z,82.87
2019-01-19T06:04:33.408Z,82.83
2019-01-19T06:07:01.832Z,82.73
2019-01-19T06:09:30.286Z,82.68
2019-01-19T06:11:58.782Z,82.70
2019-01-19T06:14:27.201Z,82.71
2019-01-19T06:16:55.647Z,82.65
2019-01-19T06:19:27.254Z,82.54
2019-01-19T06:21:57.069Z,82.44
2019-01-19T06:24:25.566Z,82.33
2019-01-19T06:26:54.009Z,82.34
2019-01-19T06:29:22.934Z,82.35
2019-01-19T06:31:51.556Z,82.26
2019-01-19T06:34:19.979Z,82.20
2019-01-19T06:36:54.865Z,82.17
2019-01-19T06:39:18.707Z,82.05
2019-01-19T06:41:47.268Z,82.06
2019-01-19T06:44:15.699Z,82.02
2019-01-19T06:46:44.203Z,81.92
2019-01-19T06:49:12.625Z,81.91
2019-01-19T06:51:41.259Z,81.83
2019-01-19T06:54:10.084Z,81.85
2019-01-19T06:56:38.571Z,81.76
2019-01-19T06:59:07.011Z,81.76
2019-01-19T07:01:35.602Z,81.79
2019-01-19T07:04:04.219Z,81.77
2019-01-19T07:06:32.631Z,81.76
2019-01-19T07:09:01.075Z,81.77
2019-01-19T07:11:30.382Z,81.80
2019-01-19T07:13:59.148Z,81.74
2019-01-19T07:16:27.621Z,82.30
2019-01-19T07:18:56.065Z,82.78
2019-01-19T07:21:27.614Z,82.98
2019-01-19T07:23:56.051Z,83.13
2019-01-19T07:26:24.464Z,83.02
2019-01-19T07:28:52.995Z,82.87
2019-01-19T07:31:21.490Z,82.87
2019-01-19T07:33:49.943Z,82.44
2019-01-19T07:36:18.383Z,81.99
2019-01-19T07:38:46.931Z,81.77
2019-01-19T07:41:15.346Z,81.52
2019-01-19T07:43:44.001Z,81.48
2019-01-19T07:46:12.769Z,81.38
2019-01-19T07:48:41.265Z,81.33
2019-01-19T07:51:11.439Z,81.25
2019-01-19T07:53:40.121Z,81.13
2019-01-19T07:56:08.590Z,80.98
2019-01-19T07:58:37.041Z,80.89
2019-01-19T08:01:05.537Z,80.79
2019-01-19T08:03:34.086Z,80.80
2019-01-19T08:06:02.553Z,80.83
2019-01-19T08:08:30.997Z,80.77
2019-01-19T08:10:59.461Z,80.68
2019-01-19T08:13:27.946Z,80.62
2019-01-19T08:15:56.390Z,80.56
2019-01-19T08:18:24.808Z,80.47
2019-01-19T08:20:53.356Z,80.49
2019-01-19T08:23:21.755Z,80.52
2019-01-19T08:25:50.667Z,80.55
2019-01-19T08:28:19.084Z,80.51
2019-01-19T08:30:47.662Z,80.61
2019-01-19T08:33:16.169Z,80.69
2019-01-19T08:35:45.398Z,80.65
2019-01-19T08:38:13.821Z,80.66
2019-01-19T08:40:42.359Z,80.66
2019-01-19T08:43:18.607Z,80.60
2019-01-19T08:45:47.228Z,80.59
2019-01-19T08:48:16.020Z,80.60
2019-01-19T08:50:44.476Z,80.50
2019-01-19T08:53:12.864Z,80.46
2019-01-19T08:55:41.300Z,80.47
2019-01-19T08:58:09.804Z,80.63
2019-01-19T09:00:38.295Z,80.55
2019-01-19T09:03:06.756Z,80.47
2019-01-19T09:05:35.165Z,80.46
2019-01-19T09:08:03.704Z,80.42
2019-01-19T09:10:32.187Z,80.43
2019-01-19T09:13:00.665Z,80.33
2019-01-19T09:15:29.297Z,80.34
2019-01-19T09:17:57.822Z,80.31
2019-01-19T09:20:26.314Z,80.31
2019-01-19T09:22:59.368Z,80.11
2019-01-19T09:25:27.850Z,80.14
2019-01-19T09:27:56.426Z,80.12
2019-01-19T09:30:25.390Z,80.29
2019-01-19T09:32:54.030Z,80.34
2019-01-19T09:35:22.542Z,80.45
2019-01-19T09:37:51.144Z,80.48
2019-01-19T09:40:19.820Z,80.51
2019-01-19T09:42:48.427Z,80.63
2019-01-19T09:45:19.085Z,80.62
2019-01-19T09:47:47.849Z,80.59
2019-01-19T09:50:21.264Z,80.67
2019-01-19T09:52:49.980Z,80.38
2019-01-19T09:55:18.532Z,80.49
2019-01-19T09:57:47.319Z,80.48
2019-01-19T10:00:24.431Z,80.32
2019-01-19T10:02:52.903Z,80.12
2019-01-19T10:05:24.429Z,79.74
2019-01-19T10:07:53.034Z,79.41
2019-01-19T10:10:21.635Z,79.95
2019-01-19T10:12:50.128Z,80.10
2019-01-19T10:15:21.014Z,80.20
2019-01-19T10:17:49.607Z,79.97
2019-01-19T10:20:20.882Z,79.92
2019-01-19T10:22:49.435Z,79.91
2019-01-19T10:25:18.099Z,79.18
2019-01-19T10:27:46.851Z,78.94
2019-01-19T10:30:17.947Z,78.63
2019-01-19T10:32:46.667Z,77.89
2019-01-19T10:35:15.881Z,77.43
2019-01-19T10:37:44.601Z,76.99
2019-01-19T10:40:17.856Z,76.54
2019-01-19T10:42:46.548Z,75.89
2019-01-19T10:45:17.505Z,75.77
2019-01-19T10:47:46.086Z,75.62
2019-01-19T10:50:20.429Z,75.10
2019-01-19T10:52:49.190Z,74.33
2019-01-19T10:55:22.811Z,74.12
2019-01-19T10:57:51.503Z,74.03
2019-01-19T11:00:28.491Z,73.35
2019-01-19T11:02:57.887Z,72.39
2019-01-19T11:05:26.521Z,72.14
2019-01-19T11:07:55.428Z,72.14
2019-01-19T11:10:29.798Z,72.21
2019-01-19T11:12:58.490Z,71.84
2019-01-19T11:15:27.161Z,70.29
2019-01-19T11:17:55.970Z,70.12
2019-01-19T11:20:26.798Z,70.07
2019-01-19T11:22:56.278Z,69.09
2019-01-19T11:25:24.842Z,68.07
2019-01-19T11:27:53.437Z,68.07
2019-01-19T11:30:26.993Z,68.19
2019-01-19T11:32:55.593Z,67.95
2019-01-19T11:35:24.141Z,67.28
2019-01-19T11:37:52.752Z,66.89
2019-01-19T11:40:30.030Z,66.57
2019-01-19T11:42:58.538Z,65.48
2019-01-19T11:45:27.194Z,65.08
2019-01-19T11:47:55.764Z,63.91
2019-01-19T11:50:24.312Z,62.18
2019-01-19T11:52:52.961Z,62.04
2019-01-19T11:55:21.614Z,61.78
2019-01-19T11:57:52.510Z,60.56
2019-01-19T12:00:26.362Z,60.16
2019-01-19T12:02:55.387Z,60.28
2019-01-19T12:05:24.811Z,59.54
2019-01-19T12:07:53.309Z,59.94
2019-01-19T12:10:23.887Z,59.29
2019-01-19T12:12:52.312Z,58.39
2019-01-19T12:15:20.902Z,57.60
2019-01-19T12:17:49.450Z,57.33
2019-01-19T12:20:41.308Z,56.37
2019-01-19T12:23:10.115Z,55.36
2019-01-19T12:25:38.664Z,56.12
2019-01-19T12:28:07.235Z,54.48
2019-01-19T12:30:36.200Z,53.92
2019-01-19T12:33:05.535Z,53.46
2019-01-19T12:35:34.141Z,53.37
2019-01-19T12:38:03.205Z,53.59
2019-01-19T12:40:31.786Z,52.50
2019-01-19T12:43:06.059Z,51.61
2019-01-19T12:45:39.575Z,50.56
2019-01-19T12:48:08.002Z,50.84
2019-01-19T12:50:36.590Z,50.87
2019-01-19T12:53:05.262Z,51.14
2019-01-19T12:55:33.854Z,50.40
2019-01-19T12:58:02.338Z,50.52
2019-01-19T13:00:33.759Z,48.97
2019-01-19T13:03:02.419Z,49.03
2019-01-19T13:05:43.809Z,48.05
2019-01-19T13:08:15.676Z,48.54
2019-01-19T13:10:47.192Z,48.17
2019-01-19T13:13:15.848Z,47.72
2019-01-19T13:15:50.581Z,47.93
2019-01-19T13:18:39.949Z,47.56
2019-01-19T13:21:37.526Z,46.55
2019-01-19T13:24:14.946Z,46.15
2019-01-19T13:27:01.547Z,46.70
2019-01-19T13:29:33.114Z,46.55
2019-01-19T13:32:22.507Z,45.86
2019-01-19T13:35:02.815Z,45.77
2019-01-19T13:37:37.460Z,44.89
2019-01-19T13:40:31.405Z,45.62
2019-01-19T13:43:21.061Z,45.56
2019-01-19T13:45:52.531Z,45.37
2019-01-19T13:48:27.128Z,45.92
2019-01-19T13:51:19.196Z,46.37
2019-01-19T13:54:02.734Z,46.75
2019-01-19T13:56:49.112Z,46.61
2019-01-19T13:59:23.447Z,46.41
2019-01-19T14:02:17.584Z,46.69
2019-01-19T14:05:04.184Z,47.62
2019-01-19T14:07:47.706Z,48.29
2019-01-19T14:10:19.195Z,48.83
2019-01-19T14:12:59.705Z,48.96
2019-01-19T14:15:31.211Z,49.30
2019-01-19T14:18:08.593Z,49.76
2019-01-19T14:20:52.156Z,50.16
2019-01-19T14:23:39.126Z,50.53
2019-01-19T14:26:26.938Z,50.75
2019-01-19T14:28:58.505Z,50.70
2019-01-19T14:31:58.558Z,50.66
2019-01-19T14:34:48.381Z,51.26
2019-01-19T14:37:48.259Z,51.67
2019-01-19T14:40:22.592Z,51.39
2019-01-19T14:42:56.749Z,51.57
2019-01-19T14:45:31.288Z,51.79
2019-01-19T14:48:11.640Z,53.41
2019-01-19T14:50:49.196Z,53.81
2019-01-19T14:53:35.731Z,53.53
2019-01-19T14:56:10.319Z,53.39
2019-01-19T14:58:44.443Z,53.40
2019-01-19T15:01:18.431Z,53.49
2019-01-19T15:04:09.702Z,53.68
2019-01-19T15:06:44.044Z,53.87
2019-01-19T15:09:27.319Z,53.99
2019-01-19T15:12:04.602Z,54.24
2019-01-19T15:14:41.869Z,54.35
2019-01-19T15:17:16.274Z,54.77
2019-01-19T15:19:59.924Z,54.87
2019-01-19T15:22:46.403Z,55.04
2019-01-19T15:25:23.790Z,55.18
2019-01-19T15:28:13.424Z,55.25
2019-01-19T15:30:57.046Z,55.49
2019-01-19T15:33:37.476Z,55.75
2019-01-19T15:36:08.966Z,56.07
2019-01-19T15:38:40.493Z,56.06
2019-01-19T15:41:21.050Z,56.03
2019-01-19T15:44:13.978Z,56.12
2019-01-19T15:47:02.917Z,56.11
2019-01-19T15:49:50.629Z,56.22
2019-01-19T15:52:27.930Z,56.38
2019-01-19T15:55:05.291Z,56.51
2019-01-19T15:57:45.477Z,56.53
2019-01-19T16:00:24.689Z,56.53
2019-01-19T16:03:14.397Z,56.58
2019-01-19T16:05:58.018Z,56.45
2019-01-19T16:08:49.249Z,56.74
2019-01-19T16:11:26.754Z,56.66
2019-01-19T16:14:14.901Z,56.71
2019-01-19T16:16:58.161Z,56.82
2019-01-19T16:19:47.859Z,57.08
2019-01-19T16:22:25.363Z,57.10
2019-01-19T16:25:15.045Z,57.35
2019-01-19T16:27:55.242Z,57.48
2019-01-19T16:30:41.514Z,57.54
2019-01-19T16:33:21.598Z,57.75
2019-01-19T16:35:58.784Z,57.96
2019-01-19T16:38:45.315Z,58.14
2019-01-19T16:41:35.131Z,58.28
2019-01-19T16:44:27.974Z,58.42
2019-01-19T16:47:25.194Z,58.74
2019-01-19T16:50:14.535Z,58.92
2019-01-19T16:52:46.028Z,59.24
2019-01-19T16:55:32.561Z,59.57
2019-01-19T16:58:07.281Z,59.96
2019-01-19T17:00:58.508Z,60.16
2019-01-19T17:03:39.685Z,60.41
2019-01-19T17:06:14.152Z,60.69
2019-01-19T17:09:09.698Z,60.92
2019-01-19T17:11:59.144Z,61.22
2019-01-19T17:14:33.566Z,61.36
2019-01-19T17:17:11.108Z,61.56
2019-01-19T17:19:57.650Z,61.82
2019-01-19T17:22:40.391Z,62.03
2019-01-19T17:25:14.655Z,62.15
2019-01-19T17:27:57.737Z,62.37
2019-01-19T17:30:35.135Z,62.60
2019-01-19T17:33:21.957Z,62.79
2019-01-19T17:36:02.323Z,62.88
2019-01-19T17:38:36.586Z,62.97
2019-01-19T17:41:32.151Z,63.13
2019-01-19T17:44:15.969Z,63.24
2019-01-19T17:46:58.816Z,63.26
2019-01-19T17:49:33.117Z,63.41
2019-01-19T17:52:07.455Z,63.56
2019-01-19T17:54:50.992Z,63.66
2019-01-19T17:57:42.072Z,63.70
2019-01-19T18:00:13.850Z,63.78
2019-01-19T18:03:06.864Z,63.81
2019-01-19T18:05:41.362Z,63.88
2019-01-19T18:08:22.011Z,63.92
2019-01-19T18:11:09.953Z,63.93
2019-01-19T18:13:50.451Z,64.06
2019-01-19T18:16:41.576Z,63.99
2019-01-19T18:19:16.059Z,64.05
2019-01-19T18:22:03.954Z,64.09
2019-01-19T18:24:50.523Z,64.37
2019-01-19T18:27:41.440Z,64.51
2019-01-19T18:30:41.891Z,64.50
2019-01-19T18:33:25.568Z,64.53
2019-01-19T18:36:02.865Z,64.64
2019-01-19T18:38:55.314Z,64.75
2019-01-19T18:41:29.882Z,64.74
2019-01-19T18:44:13.209Z,64.80
2019-01-19T18:46:53.619Z,64.89
2019-01-19T18:49:36.919Z,64.92
2019-01-19T18:52:25.243Z,64.95
2019-01-19T18:55:02.395Z,65.00
2019-01-19T18:57:45.895Z,64.97
2019-01-19T19:00:26.479Z,65.07
2019-01-19T19:03:12.979Z,65.15
2019-01-19T19:05:58.959Z,65.23
2019-01-19T19:08:47.013Z,65.24
2019-01-19T19:11:40.879Z,65.17
2019-01-19T19:14:27.185Z,65.18
2019-01-19T19:17:16.011Z,65.21
2019-01-19T19:19:51.043Z,65.15
2019-01-19T19:22:44.723Z,65.22
2019-01-19T19:25:25.556Z,65.24
2019-01-19T19:28:15.008Z,65.34
2019-01-19T19:31:04.833Z,65.23
2019-01-19T19:33:36.358Z,65.29
2019-01-19T19:36:10.612Z,65.33
2019-01-19T19:38:44.682Z,65.42
2019-01-19T19:41:19.274Z,65.45
2019-01-19T19:44:19.570Z,65.44
2019-01-19T19:47:06.520Z,65.51
2019-01-19T19:49:43.547Z,65.41
2019-01-19T19:52:12.075Z,65.49
2019-01-19T19:54:43.551Z,65.57
2019-01-19T19:57:12.215Z,65.50
2019-01-19T19:59:40.680Z,65.47
2019-01-19T20:02:09.307Z,65.55
2019-01-19T20:04:37.782Z,65.60
2019-01-19T20:07:06.612Z,65.60
2019-01-19T20:09:35.324Z,65.70
2019-01-19T20:12:06.401Z,65.71
2019-01-19T20:14:35.170Z,65.72
2019-01-19T20:17:03.810Z,65.77
2019-01-19T20:19:32.368Z,65.79
2019-01-19T20:22:00.805Z,65.80
2019-01-19T20:24:29.375Z,65.94
2019-01-19T20:26:57.987Z,66.00
2019-01-19T20:29:26.397Z,65.99
2019-01-19T20:31:54.840Z,66.05
2019-01-19T20:34:23.317Z,66.09
2019-01-19T20:36:51.844Z,66.09
2019-01-19T20:39:20.427Z,66.11
2019-01-19T20:41:48.977Z,66.11
2019-01-19T20:44:17.502Z,66.18
2019-01-19T20:46:46.010Z,66.20
2019-01-19T20:49:16.070Z,66.21
2019-01-19T20:51:44.493Z,66.31
2019-01-19T20:54:13.104Z,66.32
2019-01-19T20:56:41.621Z,66.32
2019-01-19T20:59:10.273Z,66.35
2019-01-19T21:01:38.743Z,66.38
2019-01-19T21:04:07.261Z,66.45
2019-01-19T21:06:35.837Z,66.52
2019-01-19T21:09:09.663Z,66.62
2019-01-19T21:11:38.237Z,66.64
2019-01-19T21:14:06.834Z,66.66
2019-01-19T21:16:35.341Z,66.73
2019-01-19T21:19:03.946Z,66.79
2019-01-19T21:21:32.377Z,66.78
2019-01-19T21:24:00.785Z,66.84
2019-01-19T21:26:29.347Z,66.93
2019-01-19T21:28:57.778Z,66.96
2019-01-19T21:31:32.208Z,67.09
2019-01-19T21:34:00.731Z,67.12
2019-01-19T21:36:29.182Z,67.04
2019-01-19T21:38:57.594Z,67.01
2019-01-19T21:41:26.035Z,66.97
2019-01-19T21:43:54.450Z,66.91
2019-01-19T21:46:22.908Z,66.92
2019-01-19T21:48:51.323Z,66.97
2019-01-19T21:51:19.795Z,66.95
2019-01-19T21:53:48.286Z,66.90
2019-01-19T21:56:16.776Z,66.93
2019-01-19T21:58:45.190Z,67.02
2019-01-19T22:01:13.769Z,66.96
2019-01-19T22:03:42.195Z,66.99
2019-01-19T22:06:10.632Z,67.03
2019-01-19T22:08:39.144Z,66.98
2019-01-19T22:11:07.667Z,66.94
2019-01-19T22:13:36.150Z,67.00
2019-01-19T22:16:04.684Z,66.94
2019-01-19T22:18:33.153Z,66.98
2019-01-19T22:21:01.653Z,67.05
2019-01-19T22:23:30.174Z,67.01
2019-01-19T22:25:58.657Z,66.97
2019-01-19T22:28:27.140Z,66.97
2019-01-19T22:30:55.534Z,66.90
2019-01-19T22:33:24.540Z,66.93
2019-01-19T22:35:52.984Z,66.98
2019-01-19T22:38:21.534Z,67.04
2019-01-19T22:40:53.655Z,67.09
2019-01-19T22:43:20.251Z,67.00
2019-01-19T22:45:48.759Z,67.00
2019-01-19T22:48:17.271Z,67.03
2019-01-19T22:50:45.757Z,67.03
2019-01-19T22:53:14.318Z,66.99
2019-01-19T22:55:42.821Z,66.94
2019-01-19T22:58:11.279Z,66.92
2019-01-19T23:00:59.339Z,66.96
2019-01-19T23:03:29.978Z,67.03
2019-01-19T23:05:58.561Z,67.12
2019-01-19T23:08:26.995Z,67.09
2019-01-19T23:11:01.102Z,67.12
2019-01-19T23:13:25.663Z,67.24
2019-01-19T23:15:54.112Z,67.25
2019-01-19T23:18:22.636Z,67.20
2019-01-19T23:20:51.170Z,67.23
2019-01-19T23:23:19.645Z,67.22
2019-01-19T23:25:48.147Z,67.15
2019-01-19T23:28:16.640Z,67.17
2019-01-19T23:30:45.115Z,67.19
2019-01-19T23:33:13.519Z,67.19
2019-01-19T23:35:41.956Z,67.19
2019-01-19T23:38:10.382Z,67.20
2019-01-19T23:40:38.836Z,67.21
2019-01-19T23:43:07.401Z,67.17
2019-01-19T23:45:35.843Z,67.13
2019-01-19T23:48:04.495Z,67.25
2019-01-19T23:50:32.935Z,67.24
2019-01-19T23:53:01.347Z,67.20
2019-01-19T23:55:29.805Z,67.20
2019-01-19T23:57:58.271Z,67.37
